sensor_id;sensor_type;location;lat;lon;timestamp;pressure;altitude;pressure_sealevel;temperature;humidity
73341;BME280;61578;52.002;5.468;2023-07-22T00:00:28;101347.19;;;14.77;82.72
73341;BME280;61578;52.002;5.468;2023-07-22T00:00:59;101338.31;;;14.76;82.44
73341;BME280;61578;52.002;5.468;2023-07-22T00:01:30;101340.88;;;14.78;82.61
73341;BME280;61578;52.002;5.468;2023-07-22T00:02:00;101346.13;;;14.79;82.37
73341;BME280;61578;52.002;5.468;2023-07-22T00:02:31;101357.03;;;14.76;82.15
73341;BME280;61578;52.002;5.468;2023-07-22T00:03:02;101347.19;;;14.77;82.10
73341;BME280;61578;52.002;5.468;2023-07-22T00:03:33;101343.81;;;14.75;82.04
73341;BME280;61578;52.002;5.468;2023-07-22T00:04:04;101348.31;;;14.74;82.29
73341;BME280;61578;52.002;5.468;2023-07-22T00:04:35;101281.47;;;14.37;82.56
73341;BME280;61578;52.002;5.468;2023-07-22T00:05:06;101341.34;;;14.71;82.46
73341;BME280;61578;52.002;5.468;2023-07-22T00:05:39;101341.47;;;14.70;82.61
73341;BME280;61578;52.002;5.468;2023-07-22T00:06:11;101339.63;;;14.70;82.12
73341;BME280;61578;52.002;5.468;2023-07-22T00:06:42;101347.78;;;14.69;82.08
73341;BME280;61578;52.002;5.468;2023-07-22T00:07:12;101343.38;;;14.68;82.15
73341;BME280;61578;52.002;5.468;2023-07-22T00:07:43;101297.19;;;14.42;82.49
73341;BME280;61578;52.002;5.468;2023-07-22T00:08:14;101337.28;;;14.66;82.89
73341;BME280;61578;52.002;5.468;2023-07-22T00:08:45;101337.28;;;14.66;82.43
73341;BME280;61578;52.002;5.468;2023-07-22T00:09:16;101342.63;;;14.66;82.68
73341;BME280;61578;52.002;5.468;2023-07-22T00:09:46;101325.69;;;14.54;82.28
73341;BME280;61578;52.002;5.468;2023-07-22T00:10:20;101348.22;;;14.63;82.99
73341;BME280;61578;52.002;5.468;2023-07-22T00:10:56;101275.81;;;14.29;82.83
73341;BME280;61578;52.002;5.468;2023-07-22T00:11:27;101341.28;;;14.60;82.50
73341;BME280;61578;52.002;5.468;2023-07-22T00:12:02;101337.75;;;14.60;82.22
73341;BME280;61578;52.002;5.468;2023-07-22T00:12:36;101330.41;;;14.51;82.41
73341;BME280;61578;52.002;5.468;2023-07-22T00:13:07;101336.78;;;14.61;82.97
73341;BME280;61578;52.002;5.468;2023-07-22T00:13:37;101336.03;;;14.59;82.70
73341;BME280;61578;52.002;5.468;2023-07-22T00:14:08;101285.66;;;14.29;82.54
73341;BME280;61578;52.002;5.468;2023-07-22T00:14:41;101325.91;;;14.51;82.79
73341;BME280;61578;52.002;5.468;2023-07-22T00:15:12;101324.75;;;14.55;83.13
73341;BME280;61578;52.002;5.468;2023-07-22T00:15:42;101340.41;;;14.60;82.73
73341;BME280;61578;52.002;5.468;2023-07-22T00:16:13;101334.97;;;14.61;83.82
73341;BME280;61578;52.002;5.468;2023-07-22T00:16:44;101341.16;;;14.62;83.46
73341;BME280;61578;52.002;5.468;2023-07-22T00:17:14;101321.94;;;14.57;82.83
73341;BME280;61578;52.002;5.468;2023-07-22T00:17:45;101328.97;;;14.58;82.85
73341;BME280;61578;52.002;5.468;2023-07-22T00:18:18;101336.69;;;14.62;83.04
73341;BME280;61578;52.002;5.468;2023-07-22T00:18:52;101341.16;;;14.62;82.91
73341;BME280;61578;52.002;5.468;2023-07-22T00:19:24;101298.28;;;14.40;83.09
73341;BME280;61578;52.002;5.468;2023-07-22T00:19:54;101331.34;;;14.62;83.08
73341;BME280;61578;52.002;5.468;2023-07-22T00:20:25;101330.38;;;14.63;83.27
73341;BME280;61578;52.002;5.468;2023-07-22T00:20:59;101337.53;;;14.63;83.09
73341;BME280;61578;52.002;5.468;2023-07-22T00:21:30;101334.75;;;14.64;83.34
73341;BME280;61578;52.002;5.468;2023-07-22T00:22:01;101329.53;;;14.63;82.57
73341;BME280;61578;52.002;5.468;2023-07-22T00:22:32;101280.59;;;14.37;83.20
73341;BME280;61578;52.002;5.468;2023-07-22T00:23:02;101329.28;;;14.66;83.28
73341;BME280;61578;52.002;5.468;2023-07-22T00:23:33;101330.03;;;14.68;82.78
73341;BME280;61578;52.002;5.468;2023-07-22T00:24:04;101330.03;;;14.68;82.66
73341;BME280;61578;52.002;5.468;2023-07-22T00:24:35;101322.00;;;14.68;83.02
73341;BME280;61578;52.002;5.468;2023-07-22T00:25:07;101331.72;;;14.69;82.95
73341;BME280;61578;52.002;5.468;2023-07-22T00:25:43;101330.97;;;14.67;82.50
73341;BME280;61578;52.002;5.468;2023-07-22T00:26:14;101272.47;;;14.38;82.63
73341;BME280;61578;52.002;5.468;2023-07-22T00:26:44;101326.59;;;14.66;82.75
73341;BME280;61578;52.002;5.468;2023-07-22T00:27:15;101319.34;;;14.68;83.39
73341;BME280;61578;52.002;5.468;2023-07-22T00:27:46;101322.75;;;14.70;83.13
73341;BME280;61578;52.002;5.468;2023-07-22T00:28:16;101272.31;;;14.42;83.02
73341;BME280;61578;52.002;5.468;2023-07-22T00:28:54;101317.88;;;14.64;82.38
73341;BME280;61578;52.002;5.468;2023-07-22T00:29:25;101327.44;;;14.66;82.49
73341;BME280;61578;52.002;5.468;2023-07-22T00:29:56;101316.75;;;14.66;82.43
73341;BME280;61578;52.002;5.468;2023-07-22T00:30:27;101315.09;;;14.65;82.57
73341;BME280;61578;52.002;5.468;2023-07-22T00:31:04;101273.25;;;14.41;83.05
73341;BME280;61578;52.002;5.468;2023-07-22T00:31:35;101333.34;;;14.71;82.94
73341;BME280;61578;52.002;5.468;2023-07-22T00:32:08;101320.81;;;14.72;82.74
73341;BME280;61578;52.002;5.468;2023-07-22T00:32:39;101321.47;;;14.76;83.76
73341;BME280;61578;52.002;5.468;2023-07-22T00:33:11;101318.25;;;14.70;83.05
73341;BME280;61578;52.002;5.468;2023-07-22T00:33:42;101272.81;;;14.47;82.98
73341;BME280;61578;52.002;5.468;2023-07-22T00:34:13;101316.13;;;14.76;82.57
73341;BME280;61578;52.002;5.468;2023-07-22T00:34:44;101324.13;;;14.76;82.38
73341;BME280;61578;52.002;5.468;2023-07-22T00:35:14;101271.84;;;14.48;83.01
73341;BME280;61578;52.002;5.468;2023-07-22T00:35:49;101320.47;;;14.77;83.34
73341;BME280;61578;52.002;5.468;2023-07-22T00:36:21;101326.66;;;14.77;82.94
73341;BME280;61578;52.002;5.468;2023-07-22T00:37:00;101324.75;;;14.79;83.51
73341;BME280;61578;52.002;5.468;2023-07-22T00:37:31;101317.47;;;14.81;84.24
73341;BME280;61578;52.002;5.468;2023-07-22T00:38:02;101323.56;;;14.83;83.76
73341;BME280;61578;52.002;5.468;2023-07-22T00:38:35;101285.06;;;14.62;83.39
73341;BME280;61578;52.002;5.468;2023-07-22T00:39:06;101316.50;;;14.82;83.35
73341;BME280;61578;52.002;5.468;2023-07-22T00:39:39;101327.59;;;14.89;83.57
73341;BME280;61578;52.002;5.468;2023-07-22T00:40:10;101306.03;;;14.79;83.36
73341;BME280;61578;52.002;5.468;2023-07-22T00:40:42;101273.50;;;14.61;82.87
73341;BME280;61578;52.002;5.468;2023-07-22T00:41:13;101318.72;;;14.88;82.80
73341;BME280;61578;52.002;5.468;2023-07-22T00:41:44;101325.88;;;14.88;83.16
73341;BME280;61578;52.002;5.468;2023-07-22T00:42:15;101271.69;;;14.62;83.46
73341;BME280;61578;52.002;5.468;2023-07-22T00:42:46;101317.97;;;14.86;83.15
73341;BME280;61578;52.002;5.468;2023-07-22T00:43:17;101278.47;;;14.55;83.55
73341;BME280;61578;52.002;5.468;2023-07-22T00:43:48;101321.78;;;14.71;83.30
73341;BME280;61578;52.002;5.468;2023-07-22T00:44:19;101314.22;;;14.65;84.21
73341;BME280;61578;52.002;5.468;2023-07-22T00:44:59;101325.88;;;14.64;84.59
73341;BME280;61578;52.002;5.468;2023-07-22T00:45:29;101324.97;;;14.76;84.61
73341;BME280;61578;52.002;5.468;2023-07-22T00:46:03;101325.28;;;14.84;83.96
73341;BME280;61578;52.002;5.468;2023-07-22T00:46:33;101320.53;;;14.88;84.13
73341;BME280;61578;52.002;5.468;2023-07-22T00:47:04;101324.69;;;14.92;83.83
73341;BME280;61578;52.002;5.468;2023-07-22T00:47:39;101323.72;;;14.93;83.64
73341;BME280;61578;52.002;5.468;2023-07-22T00:48:11;101319.22;;;14.93;83.65
73341;BME280;61578;52.002;5.468;2023-07-22T00:48:46;101317.41;;;14.94;83.70
73341;BME280;61578;52.002;5.468;2023-07-22T00:49:17;101318.16;;;14.96;83.62
73341;BME280;61578;52.002;5.468;2023-07-22T00:50:00;101321.44;;;14.99;83.67
73341;BME280;61578;52.002;5.468;2023-07-22T00:50:33;101323.25;;;14.99;83.45
73341;BME280;61578;52.002;5.468;2023-07-22T00:51:04;101319.63;;;15.00;83.48
73341;BME280;61578;52.002;5.468;2023-07-22T00:51:35;101315.13;;;15.00;83.21
73341;BME280;61578;52.002;5.468;2023-07-22T00:52:06;101317.78;;;15.00;82.96
73341;BME280;61578;52.002;5.468;2023-07-22T00:52:37;101330.31;;;15.00;83.03
73341;BME280;61578;52.002;5.468;2023-07-22T00:53:08;101314.38;;;14.98;83.57
73341;BME280;61578;52.002;5.468;2023-07-22T00:53:39;101305.88;;;14.93;82.95
73341;BME280;61578;52.002;5.468;2023-07-22T00:54:10;101313.41;;;14.99;83.28
73341;BME280;61578;52.002;5.468;2023-07-22T00:54:41;101317.91;;;14.99;83.31
73341;BME280;61578;52.002;5.468;2023-07-22T00:55:12;101306.34;;;14.98;83.73
73341;BME280;61578;52.002;5.468;2023-07-22T00:55:42;101316.63;;;15.04;83.85
73341;BME280;61578;52.002;5.468;2023-07-22T00:56:15;101321.97;;;15.04;83.04
73341;BME280;61578;52.002;5.468;2023-07-22T00:56:47;101318.31;;;15.05;83.24
73341;BME280;61578;52.002;5.468;2023-07-22T00:57:19;101312.34;;;15.02;83.44
73341;BME280;61578;52.002;5.468;2023-07-22T00:57:59;101319.03;;;15.07;83.16
73341;BME280;61578;52.002;5.468;2023-07-22T00:58:34;101316.34;;;15.07;83.51
73341;BME280;61578;52.002;5.468;2023-07-22T00:59:04;101314.44;;;15.09;83.65
73341;BME280;61578;52.002;5.468;2023-07-22T00:59:36;101319.78;;;15.09;83.76
73341;BME280;61578;52.002;5.468;2023-07-22T01:00:08;101313.56;;;15.09;83.48
73341;BME280;61578;52.002;5.468;2023-07-22T01:00:42;101315.41;;;15.08;82.81
73341;BME280;61578;52.002;5.468;2023-07-22T01:01:13;101319.03;;;15.07;83.03
73341;BME280;61578;52.002;5.468;2023-07-22T01:01:43;101312.84;;;15.07;83.03
73341;BME280;61578;52.002;5.468;2023-07-22T01:02:14;101318.06;;;15.08;83.26
73341;BME280;61578;52.002;5.468;2023-07-22T01:02:48;101313.69;;;15.07;83.21
73341;BME280;61578;52.002;5.468;2023-07-22T01:03:19;101309.88;;;14.99;83.04
73341;BME280;61578;52.002;5.468;2023-07-22T01:04:02;101307.00;;;15.02;83.92
73341;BME280;61578;52.002;5.468;2023-07-22T01:04:34;101323.19;;;15.12;83.32
73341;BME280;61578;52.002;5.468;2023-07-22T01:05:06;101308.84;;;15.13;83.85
73341;BME280;61578;52.002;5.468;2023-07-22T01:05:39;101309.31;;;15.06;83.40
73341;BME280;61578;52.002;5.468;2023-07-22T01:06:14;101303.72;;;15.09;83.79
73341;BME280;61578;52.002;5.468;2023-07-22T01:06:49;101305.31;;;15.12;83.34
73341;BME280;61578;52.002;5.468;2023-07-22T01:07:23;101304.38;;;15.13;83.34
73341;BME280;61578;52.002;5.468;2023-07-22T01:07:58;101223.22;;;14.66;83.54
73341;BME280;61578;52.002;5.468;2023-07-22T01:08:29;101310.31;;;15.17;83.25
73341;BME280;61578;52.002;5.468;2023-07-22T01:08:59;101309.34;;;15.18;83.20
73341;BME280;61578;52.002;5.468;2023-07-22T01:09:35;101309.22;;;15.19;82.94
73341;BME280;61578;52.002;5.468;2023-07-22T01:10:10;101269.28;;;14.94;82.64
73341;BME280;61578;52.002;5.468;2023-07-22T01:10:40;101319.34;;;15.16;82.68
73341;BME280;61578;52.002;5.468;2023-07-22T01:11:14;101310.47;;;15.15;82.51
73341;BME280;61578;52.002;5.468;2023-07-22T01:11:45;101304.25;;;15.15;83.39
73341;BME280;61578;52.002;5.468;2023-07-22T01:12:15;101305.81;;;15.17;83.19
73341;BME280;61578;52.002;5.468;2023-07-22T01:12:46;101301.31;;;15.18;83.82
73341;BME280;61578;52.002;5.468;2023-07-22T01:13:17;101302.28;;;15.17;83.93
73341;BME280;61578;52.002;5.468;2023-07-22T01:13:48;101309.22;;;15.19;83.41
73341;BME280;61578;52.002;5.468;2023-07-22T01:14:18;101301.81;;;15.12;82.67
73341;BME280;61578;52.002;5.468;2023-07-22T01:14:58;101292.28;;;15.07;82.63
73341;BME280;61578;52.002;5.468;2023-07-22T01:15:29;101249.16;;;14.77;82.90
73341;BME280;61578;52.002;5.468;2023-07-22T01:16:01;101307.03;;;15.13;83.44
73341;BME280;61578;52.002;5.468;2023-07-22T01:16:35;101302.53;;;15.14;83.48
73341;BME280;61578;52.002;5.468;2023-07-22T01:17:08;101256.72;;;14.83;83.16
73341;BME280;61578;52.002;5.468;2023-07-22T01:17:44;101257.22;;;14.88;83.65
73341;BME280;61578;52.002;5.468;2023-07-22T01:18:15;101310.91;;;15.09;83.57
73341;BME280;61578;52.002;5.468;2023-07-22T01:18:46;101301.56;;;15.15;83.76
73341;BME280;61578;52.002;5.468;2023-07-22T01:19:18;101306.94;;;15.15;83.30
73341;BME280;61578;52.002;5.468;2023-07-22T01:19:56;101292.44;;;15.06;82.94
73341;BME280;61578;52.002;5.468;2023-07-22T01:20:29;101280.72;;;14.96;83.32
73341;BME280;61578;52.002;5.468;2023-07-22T01:21:01;101295.72;;;15.09;83.33
73341;BME280;61578;52.002;5.468;2023-07-22T01:21:32;101300.94;;;15.11;84.06
73341;BME280;61578;52.002;5.468;2023-07-22T01:22:10;101303.84;;;15.08;83.62
73341;BME280;61578;52.002;5.468;2023-07-22T01:22:52;101280.38;;;15.00;83.51
73341;BME280;61578;52.002;5.468;2023-07-22T01:23:24;101285.38;;;15.05;83.51
73341;BME280;61578;52.002;5.468;2023-07-22T01:24:14;101298.16;;;15.13;83.44
73341;BME280;61578;52.002;5.468;2023-07-22T01:24:48;101282.94;;;15.02;82.95
73341;BME280;61578;52.002;5.468;2023-07-22T01:25:37;101291.69;;;15.04;83.24
73341;BME280;61578;52.002;5.468;2023-07-22T01:26:20;101302.88;;;15.09;83.46
73341;BME280;61578;52.002;5.468;2023-07-22T01:27:06;101298.28;;;15.11;84.00
73341;BME280;61578;52.002;5.468;2023-07-22T01:27:43;101312.38;;;15.13;83.74
73341;BME280;61578;52.002;5.468;2023-07-22T01:28:26;101288.66;;;15.08;83.04
73341;BME280;61578;52.002;5.468;2023-07-22T01:29:15;101295.38;;;15.14;83.71
73341;BME280;61578;52.002;5.468;2023-07-22T01:29:46;101238.97;;;14.82;83.67
73341;BME280;61578;52.002;5.468;2023-07-22T01:30:30;101297.94;;;15.16;83.32
73341;BME280;61578;52.002;5.468;2023-07-22T01:31:19;101304.25;;;15.15;83.68
73341;BME280;61578;52.002;5.468;2023-07-22T01:32:08;101288.09;;;15.16;84.03
73341;BME280;61578;52.002;5.468;2023-07-22T01:32:40;101292.59;;;15.16;83.66
73341;BME280;61578;52.002;5.468;2023-07-22T01:33:29;101292.59;;;15.16;83.40
73341;BME280;61578;52.002;5.468;2023-07-22T01:34:19;101283.31;;;15.08;83.25
73341;BME280;61578;52.002;5.468;2023-07-22T01:34:52;101289.16;;;15.14;83.59
73341;BME280;61578;52.002;5.468;2023-07-22T01:35:23;101286.22;;;15.05;83.62
73341;BME280;61578;52.002;5.468;2023-07-22T01:36:14;101288.44;;;15.12;83.54
73341;BME280;61578;52.002;5.468;2023-07-22T01:36:46;101300.94;;;15.11;83.38
73341;BME280;61578;52.002;5.468;2023-07-22T01:37:36;101293.78;;;15.12;84.22
73341;BME280;61578;52.002;5.468;2023-07-22T01:38:26;101287.69;;;15.09;83.11
73341;BME280;61578;52.002;5.468;2023-07-22T01:38:57;101290.47;;;15.08;82.80
73341;BME280;61578;52.002;5.468;2023-07-22T01:39:27;101294.00;;;15.08;83.63
73341;BME280;61578;52.002;5.468;2023-07-22T01:40:17;101291.44;;;15.07;83.53
73341;BME280;61578;52.002;5.468;2023-07-22T01:40:54;101288.91;;;15.05;83.29
73341;BME280;61578;52.002;5.468;2023-07-22T01:41:25;101294.38;;;15.04;83.21
73341;BME280;61578;52.002;5.468;2023-07-22T01:42:14;101279.13;;;14.93;83.65
73341;BME280;61578;52.002;5.468;2023-07-22T01:42:45;101287.53;;;15.00;83.71
73341;BME280;61578;52.002;5.468;2023-07-22T01:43:15;101295.44;;;15.01;83.30
73341;BME280;61578;52.002;5.468;2023-07-22T01:43:46;101297.38;;;14.99;83.42
73341;BME280;61578;52.002;5.468;2023-07-22T01:44:19;101294.81;;;14.98;83.77
73341;BME280;61578;52.002;5.468;2023-07-22T01:44:50;101293.84;;;14.99;83.27
73341;BME280;61578;52.002;5.468;2023-07-22T01:45:22;101291.41;;;14.96;83.16
73341;BME280;61578;52.002;5.468;2023-07-22T01:46:11;101273.03;;;14.91;83.04
73341;BME280;61578;52.002;5.468;2023-07-22T01:47:02;101287.16;;;14.93;82.92
73341;BME280;61578;52.002;5.468;2023-07-22T01:47:35;101280.69;;;14.85;82.96
73341;BME280;61578;52.002;5.468;2023-07-22T01:48:06;101251.06;;;14.64;83.65
73341;BME280;61578;52.002;5.468;2023-07-22T01:48:36;101292.22;;;14.85;83.62
73341;BME280;61578;52.002;5.468;2023-07-22T01:49:14;101289.56;;;14.85;83.54
73341;BME280;61578;52.002;5.468;2023-07-22T01:49:45;101294.91;;;14.85;83.08
73341;BME280;61578;52.002;5.468;2023-07-22T01:50:34;101291.81;;;14.79;82.92
73341;BME280;61578;52.002;5.468;2023-07-22T01:51:20;101284.84;;;14.76;83.51
73341;BME280;61578;52.002;5.468;2023-07-22T01:52:09;101247.97;;;14.57;83.38
73341;BME280;61578;52.002;5.468;2023-07-22T01:52:48;101297.03;;;14.80;83.75
73341;BME280;61578;52.002;5.468;2023-07-22T01:53:28;101297.03;;;14.80;83.31
73341;BME280;61578;52.002;5.468;2023-07-22T01:54:02;101290.84;;;14.80;83.78
73341;BME280;61578;52.002;5.468;2023-07-22T01:54:33;101263.88;;;14.59;83.33
73341;BME280;61578;52.002;5.468;2023-07-22T01:55:22;101298.88;;;14.80;83.30
73341;BME280;61578;52.002;5.468;2023-07-22T01:56:11;101305.53;;;14.74;82.73
73341;BME280;61578;52.002;5.468;2023-07-22T01:57:00;101292.28;;;14.72;83.11
73341;BME280;61578;52.002;5.468;2023-07-22T01:57:34;101285.22;;;14.71;82.98
73341;BME280;61578;52.002;5.468;2023-07-22T01:58:23;101282.16;;;14.65;83.20
73341;BME280;61578;52.002;5.468;2023-07-22T01:58:57;101287.38;;;14.66;83.33
73341;BME280;61578;52.002;5.468;2023-07-22T01:59:28;101289.94;;;14.68;83.43
73341;BME280;61578;52.002;5.468;2023-07-22T02:00:18;101279.69;;;14.62;83.38
73341;BME280;61578;52.002;5.468;2023-07-22T02:01:09;101292.22;;;14.61;83.46
73341;BME280;61578;52.002;5.468;2023-07-22T02:01:45;101268.72;;;14.54;83.89
73341;BME280;61578;52.002;5.468;2023-07-22T02:02:37;101288.22;;;14.67;83.19
73341;BME280;61578;52.002;5.468;2023-07-22T02:03:26;101290.03;;;14.66;83.20
73341;BME280;61578;52.002;5.468;2023-07-22T02:03:57;101296.50;;;14.64;83.73
73341;BME280;61578;52.002;5.468;2023-07-22T02:04:28;101296.25;;;14.67;83.87
73341;BME280;61578;52.002;5.468;2023-07-22T02:05:17;101249.50;;;14.36;82.96
73341;BME280;61578;52.002;5.468;2023-07-22T02:06:01;101293.19;;;14.60;83.50
73341;BME280;61578;52.002;5.468;2023-07-22T02:06:37;101275.03;;;14.53;83.52
73341;BME280;61578;52.002;5.468;2023-07-22T02:07:08;101289.66;;;14.60;83.62
73341;BME280;61578;52.002;5.468;2023-07-22T02:07:39;101299.47;;;14.59;83.76
73341;BME280;61578;52.002;5.468;2023-07-22T02:08:10;101286.13;;;14.59;83.52
73341;BME280;61578;52.002;5.468;2023-07-22T02:08:41;101297.66;;;14.60;84.38
73341;BME280;61578;52.002;5.468;2023-07-22T02:09:30;101287.84;;;14.60;83.79
73341;BME280;61578;52.002;5.468;2023-07-22T02:10:06;101286.34;;;14.56;83.29
73341;BME280;61578;52.002;5.468;2023-07-22T02:10:37;101290.13;;;14.54;83.83
73341;BME280;61578;52.002;5.468;2023-07-22T02:11:26;101293.28;;;14.59;83.86
73341;BME280;61578;52.002;5.468;2023-07-22T02:12:03;101276.75;;;14.54;83.52
73341;BME280;61578;52.002;5.468;2023-07-22T02:12:35;101288.91;;;14.58;84.07
73341;BME280;61578;52.002;5.468;2023-07-22T02:13:24;101275.25;;;14.50;83.61
73341;BME280;61578;52.002;5.468;2023-07-22T02:13:55;101285.63;;;14.54;83.57
73341;BME280;61578;52.002;5.468;2023-07-22T02:14:25;101286.59;;;14.53;83.41
73341;BME280;61578;52.002;5.468;2023-07-22T02:15:14;101284.03;;;14.52;83.33
73341;BME280;61578;52.002;5.468;2023-07-22T02:16:04;101284.88;;;14.52;83.67
73341;BME280;61578;52.002;5.468;2023-07-22T02:16:47;101289.59;;;14.49;83.85
73341;BME280;61578;52.002;5.468;2023-07-22T02:17:37;101270.13;;;14.47;83.47
73341;BME280;61578;52.002;5.468;2023-07-22T02:18:26;101252.53;;;14.31;83.23
73341;BME280;61578;52.002;5.468;2023-07-22T02:19:16;101279.97;;;14.46;83.58
73341;BME280;61578;52.002;5.468;2023-07-22T02:20:06;101281.28;;;14.41;83.72
73341;BME280;61578;52.002;5.468;2023-07-22T02:20:42;101286.50;;;14.42;83.61
73341;BME280;61578;52.002;5.468;2023-07-22T02:21:32;101298.06;;;14.43;83.62
73341;BME280;61578;52.002;5.468;2023-07-22T02:22:04;101278.41;;;14.44;84.45
73341;BME280;61578;52.002;5.468;2023-07-22T02:22:35;101237.41;;;14.19;84.17
73341;BME280;61578;52.002;5.468;2023-07-22T02:23:06;101269.63;;;14.42;84.21
73341;BME280;61578;52.002;5.468;2023-07-22T02:23:37;101274.22;;;14.40;83.89
73341;BME280;61578;52.002;5.468;2023-07-22T02:24:26;101271.22;;;14.44;84.15
73341;BME280;61578;52.002;5.468;2023-07-22T02:25:15;101272.19;;;14.43;83.94
73341;BME280;61578;52.002;5.468;2023-07-22T02:26:05;101274.00;;;14.43;83.51
73341;BME280;61578;52.002;5.468;2023-07-22T02:26:41;101279.47;;;14.41;83.54
73341;BME280;61578;52.002;5.468;2023-07-22T02:27:31;101273.25;;;14.41;84.10
73341;BME280;61578;52.002;5.468;2023-07-22T02:28:04;101272.31;;;14.42;84.01
73341;BME280;61578;52.002;5.468;2023-07-22T02:28:35;101266.00;;;14.43;84.51
73341;BME280;61578;52.002;5.468;2023-07-22T02:29:08;101265.16;;;14.42;84.26
73341;BME280;61578;52.002;5.468;2023-07-22T02:29:39;101265.16;;;14.42;83.77
73341;BME280;61578;52.002;5.468;2023-07-22T02:30:29;101269.63;;;14.42;83.81
73341;BME280;61578;52.002;5.468;2023-07-22T02:31:02;101279.56;;;14.40;83.83
73341;BME280;61578;52.002;5.468;2023-07-22T02:31:37;101263.63;;;14.38;83.87
73341;BME280;61578;52.002;5.468;2023-07-22T02:32:26;101261.06;;;14.36;83.82
73341;BME280;61578;52.002;5.468;2023-07-22T02:33:00;101266.22;;;14.40;83.63
73341;BME280;61578;52.002;5.468;2023-07-22T02:33:32;101261.91;;;14.37;83.82
73341;BME280;61578;52.002;5.468;2023-07-22T02:34:21;101269.81;;;14.38;83.60
73341;BME280;61578;52.002;5.468;2023-07-22T02:35:07;101252.75;;;14.28;83.84
73341;BME280;61578;52.002;5.468;2023-07-22T02:35:38;101222.06;;;14.10;84.10
73341;BME280;61578;52.002;5.468;2023-07-22T02:36:14;101270.78;;;14.37;83.52
73341;BME280;61578;52.002;5.468;2023-07-22T02:36:48;101277.94;;;14.37;83.38
73341;BME280;61578;52.002;5.468;2023-07-22T02:37:22;101265.53;;;14.36;83.73
73341;BME280;61578;52.002;5.468;2023-07-22T02:37:55;101267.91;;;14.28;83.62
73341;BME280;61578;52.002;5.468;2023-07-22T02:38:26;101249.78;;;14.20;84.02
73341;BME280;61578;52.002;5.468;2023-07-22T02:38:57;101226.75;;;14.07;83.80
73341;BME280;61578;52.002;5.468;2023-07-22T02:39:27;101271.34;;;14.30;83.50
73341;BME280;61578;52.002;5.468;2023-07-22T02:40:17;101272.41;;;14.27;83.97
73341;BME280;61578;52.002;5.468;2023-07-22T02:41:06;101265.16;;;14.29;83.83
73341;BME280;61578;52.002;5.468;2023-07-22T02:41:41;101226.00;;;14.05;84.09
73341;BME280;61578;52.002;5.468;2023-07-22T02:42:30;101265.16;;;14.29;83.63
73341;BME280;61578;52.002;5.468;2023-07-22T02:43:01;101273.25;;;14.28;83.63
73341;BME280;61578;52.002;5.468;2023-07-22T02:43:34;101275.09;;;14.27;83.77
73341;BME280;61578;52.002;5.468;2023-07-22T02:44:24;101228.91;;;14.02;83.39
73341;BME280;61578;52.002;5.468;2023-07-22T02:45:13;101269.00;;;14.25;83.99
73341;BME280;61578;52.002;5.468;2023-07-22T02:45:43;101269.34;;;14.21;83.93
73341;BME280;61578;52.002;5.468;2023-07-22T02:46:33;101268.38;;;14.22;83.97
73341;BME280;61578;52.002;5.468;2023-07-22T02:47:22;101266.47;;;14.24;84.21
73341;BME280;61578;52.002;5.468;2023-07-22T02:47:56;101277.34;;;14.21;84.06
73341;BME280;61578;52.002;5.468;2023-07-22T02:48:26;101236.81;;;14.03;84.09
73341;BME280;61578;52.002;5.468;2023-07-22T02:49:16;101262.19;;;14.21;84.77
73341;BME280;61578;52.002;5.468;2023-07-22T02:49:47;101264.09;;;14.19;84.49
73341;BME280;61578;52.002;5.468;2023-07-22T02:50:36;101253.53;;;14.18;83.81
73341;BME280;61578;52.002;5.468;2023-07-22T02:51:25;101224.25;;;13.92;84.08
73341;BME280;61578;52.002;5.468;2023-07-22T02:52:05;101206.94;;;13.85;84.25
73341;BME280;61578;52.002;5.468;2023-07-22T02:52:37;101265.16;;;14.17;84.23
73341;BME280;61578;52.002;5.468;2023-07-22T02:53:26;101214.84;;;13.87;83.65
73341;BME280;61578;52.002;5.468;2023-07-22T02:53:57;101230.94;;;13.98;83.80
73341;BME280;61578;52.002;5.468;2023-07-22T02:54:31;101259.09;;;14.15;84.62
73341;BME280;61578;52.002;5.468;2023-07-22T02:55:10;101268.69;;;14.17;84.46
73341;BME280;61578;52.002;5.468;2023-07-22T02:55:45;101263.25;;;14.19;85.09
73341;BME280;61578;52.002;5.468;2023-07-22T02:56:19;101252.78;;;14.16;84.78
73341;BME280;61578;52.002;5.468;2023-07-22T02:56:52;101267.63;;;14.20;84.53
73341;BME280;61578;52.002;5.468;2023-07-22T02:57:23;101265.06;;;14.18;84.22
73341;BME280;61578;52.002;5.468;2023-07-22T02:57:53;101261.44;;;14.19;84.42
73341;BME280;61578;52.002;5.468;2023-07-22T02:58:27;101227.41;;;13.97;84.54
73341;BME280;61578;52.002;5.468;2023-07-22T02:58:57;101246.09;;;14.10;84.50
73341;BME280;61578;52.002;5.468;2023-07-22T02:59:28;101267.41;;;14.23;84.40
73341;BME280;61578;52.002;5.468;2023-07-22T02:59:59;101267.53;;;14.21;84.47
73341;BME280;61578;52.002;5.468;2023-07-22T03:00:29;101267.53;;;14.21;84.64
73341;BME280;61578;52.002;5.468;2023-07-22T03:01:00;101263.03;;;14.22;84.69
73341;BME280;61578;52.002;5.468;2023-07-22T03:01:31;101268.38;;;14.22;84.17
73341;BME280;61578;52.002;5.468;2023-07-22T03:02:02;101217.28;;;13.90;84.21
73341;BME280;61578;52.002;5.468;2023-07-22T03:02:36;101254.84;;;14.12;84.65
73341;BME280;61578;52.002;5.468;2023-07-22T03:03:07;101270.31;;;14.20;84.25
73341;BME280;61578;52.002;5.468;2023-07-22T03:03:39;101278.31;;;14.20;84.60
73341;BME280;61578;52.002;5.468;2023-07-22T03:04:10;101268.47;;;14.20;84.61
73341;BME280;61578;52.002;5.468;2023-07-22T03:04:42;101272.97;;;14.20;84.33
73341;BME280;61578;52.002;5.468;2023-07-22T03:05:14;101267.72;;;14.18;84.79
73341;BME280;61578;52.002;5.468;2023-07-22T03:05:45;101278.53;;;14.17;84.45
73341;BME280;61578;52.002;5.468;2023-07-22T03:06:16;101273.06;;;14.18;84.34